createdAt,value
2018-10-03T14:42:20.012Z,53.98
2018-10-03T14:44:48.994Z,52.53
2018-10-03T14:47:18.006Z,49.27
2018-10-03T14:49:47.010Z,47.90
2018-10-03T14:52:17.018Z,48.98
2018-10-03T14:54:45.910Z,42.85
2018-10-03T14:57:16.317Z,44.15
2018-10-03T14:59:45.375Z,37.20
2018-10-03T15:02:14.367Z,36.28
2018-10-03T15:04:44.042Z,35.75
2018-10-03T15:07:13.119Z,32.48
2018-10-03T15:09:41.987Z,27.30
2018-10-03T15:12:12.041Z,30.70
2018-10-03T15:14:41.028Z,28.62
2018-10-03T15:17:09.935Z,30.02
2018-10-03T15:19:39.027Z,30.75
2018-10-03T15:22:08.146Z,30.05
2018-10-03T15:24:37.169Z,25.48
2018-10-03T15:27:06.364Z,26.05
2018-10-03T15:29:35.282Z,21.73
2018-10-03T15:32:04.943Z,19.12
2018-10-03T15:34:34.012Z,16.93
2018-10-03T15:37:03.405Z,14.20
2018-10-03T15:39:32.270Z,16.90
2018-10-03T15:42:01.687Z,26.02
2018-10-03T15:44:30.730Z,26.80
2018-10-03T15:46:59.790Z,31.93
2018-10-03T15:49:29.604Z,30.30
2018-10-03T15:51:58.523Z,27.90
2018-10-03T15:54:26.477Z,28.20
2018-10-03T15:56:55.860Z,27.27
2018-10-03T15:59:25.045Z,27.27
2018-10-03T16:01:54.164Z,26.33
2018-10-03T16:04:23.155Z,25.68
2018-10-03T16:06:52.093Z,25.27
2018-10-03T16:09:20.933Z,24.30
2018-10-03T16:11:50.161Z,24.15
2018-10-03T16:14:19.206Z,22.95
2018-10-03T16:16:48.284Z,23.62
2018-10-03T16:19:17.502Z,22.82
2018-10-03T16:21:46.362Z,22.62
2018-10-03T16:24:15.509Z,22.93
2018-10-03T16:26:46.421Z,21.60
2018-10-03T16:29:15.415Z,21.20
2018-10-03T16:31:44.438Z,20.90
2018-10-03T16:34:13.425Z,21.33
2018-10-03T16:36:42.366Z,20.45
2018-10-03T16:39:11.863Z,20.75
2018-10-03T16:41:41.507Z,20.05
2018-10-03T16:44:10.623Z,18.98
2018-10-03T16:46:40.226Z,19.62
2018-10-03T16:49:09.268Z,18.98
2018-10-03T16:51:38.655Z,19.27
2018-10-03T16:54:07.666Z,18.65
2018-10-03T16:56:37.015Z,18.12
2018-10-03T16:59:06.340Z,19.12
2018-10-03T17:01:35.312Z,21.25
2018-10-03T17:04:04.359Z,26.23
2018-10-03T17:06:33.337Z,27.30
2018-10-03T17:09:02.367Z,26.85
2018-10-03T17:11:32.480Z,26.12
2018-10-03T17:14:34.448Z,25.88
2018-10-03T17:17:03.446Z,25.45
2018-10-03T17:19:32.485Z,25.27
2018-10-03T17:22:02.145Z,24.65
2018-10-03T17:24:32.404Z,23.83
2018-10-03T17:27:01.569Z,24.00
2018-10-03T17:29:30.573Z,23.25
2018-10-03T17:31:59.524Z,23.95
2018-10-03T17:34:30.094Z,23.90
2018-10-03T17:36:59.076Z,22.65
2018-10-03T17:39:35.583Z,23.45
2018-10-03T17:42:04.617Z,23.10
2018-10-03T17:44:35.352Z,22.67
2018-10-03T17:47:05.486Z,23.75
2018-10-03T17:49:35.301Z,21.48
2018-10-03T17:52:05.573Z,22.82
2018-10-03T17:54:34.550Z,20.92
2018-10-03T17:57:03.750Z,20.92
2018-10-03T17:59:32.884Z,20.10
2018-10-03T18:02:06.511Z,19.85
2018-10-03T18:04:36.115Z,19.92
2018-10-03T18:07:05.637Z,20.00
2018-10-03T18:09:35.523Z,19.15
2018-10-03T18:12:05.446Z,19.98
2018-10-03T18:14:35.028Z,18.70
2018-10-03T18:17:05.563Z,17.52
2018-10-03T18:19:34.938Z,17.45
2018-10-03T18:22:04.364Z,18.25
2018-10-03T18:24:34.386Z,17.52
2018-10-03T18:27:03.927Z,18.15
2018-10-03T18:29:33.240Z,17.52
2018-10-03T18:32:02.744Z,18.37
2018-10-03T18:34:32.382Z,17.98
2018-10-03T18:37:04.995Z,18.07
2018-10-03T18:39:34.542Z,16.90
2018-10-03T18:42:04.681Z,17.17
2018-10-03T18:44:34.503Z,15.50
2018-10-03T18:47:03.977Z,17.50
2018-10-03T18:49:33.683Z,16.25
2018-10-03T18:52:03.199Z,15.63
2018-10-03T18:54:32.591Z,16.52
2018-10-03T18:57:02.341Z,16.62
2018-10-03T18:59:31.871Z,16.07
2018-10-03T19:02:01.441Z,15.43
2018-10-03T19:04:30.976Z,15.50
2018-10-03T19:07:00.362Z,14.53
2018-10-03T19:09:30.758Z,14.63
2018-10-03T19:12:01.110Z,13.95
2018-10-03T19:14:30.638Z,15.00
2018-10-03T19:17:00.934Z,13.90
2018-10-03T19:19:30.598Z,13.50
2018-10-03T19:22:00.177Z,12.78
2018-10-03T19:24:30.562Z,13.30
2018-10-03T19:26:59.861Z,12.70
2018-10-03T19:29:29.353Z,12.70
2018-10-03T19:31:58.968Z,12.75
2018-10-03T19:34:28.482Z,11.93
2018-10-03T19:36:57.997Z,11.88
2018-10-03T19:39:26.967Z,11.65
2018-10-03T19:41:56.255Z,11.40
2018-10-03T19:44:25.277Z,11.48
2018-10-03T19:46:54.238Z,11.80
2018-10-03T19:49:23.098Z,12.93
2018-10-03T19:51:52.118Z,12.88
2018-10-03T19:54:21.127Z,12.90
2018-10-03T19:56:50.505Z,12.78
2018-10-03T19:59:19.391Z,11.83
2018-10-03T20:01:48.371Z,12.65
2018-10-03T20:04:17.227Z,12.50
2018-10-03T20:06:46.173Z,12.60
2018-10-03T20:09:16.213Z,12.07
2018-10-03T20:11:45.176Z,12.28
2018-10-03T20:14:14.278Z,12.37
2018-10-03T20:16:43.599Z,12.28
2018-10-03T20:19:12.616Z,12.20
2018-10-03T20:21:43.361Z,11.97
2018-10-03T20:24:12.326Z,11.57
2018-10-03T20:26:41.254Z,11.93
2018-10-03T20:29:10.185Z,11.63
2018-10-03T20:31:39.146Z,12.00
2018-10-03T20:34:09.139Z,11.48
2018-10-03T20:36:38.135Z,13.08
2018-10-03T20:39:08.556Z,12.40
2018-10-03T20:41:37.702Z,12.40
2018-10-03T20:44:07.127Z,12.60
2018-10-03T20:46:37.703Z,12.45
2018-10-03T20:49:06.783Z,18.17
2018-10-03T20:51:35.878Z,17.60
2018-10-03T20:54:04.847Z,14.73
2018-10-03T20:56:33.906Z,25.05
2018-10-03T20:59:03.735Z,14.95
2018-10-03T21:01:32.676Z,14.13
2018-10-03T21:04:01.672Z,14.53
2018-10-03T21:06:30.589Z,14.13
2018-10-03T21:08:59.640Z,18.52
2018-10-03T21:11:28.507Z,19.77
2018-10-03T21:13:57.456Z,17.95
2018-10-03T21:16:26.468Z,15.68
2018-10-03T21:18:55.521Z,14.25
2018-10-03T21:21:24.525Z,15.48
2018-10-03T21:23:53.561Z,13.15
2018-10-03T21:26:22.498Z,19.10
2018-10-03T21:28:51.662Z,15.00
2018-10-03T21:31:20.684Z,14.98
2018-10-03T21:33:49.637Z,16.12
2018-10-03T21:36:18.982Z,15.80
2018-10-03T21:38:47.819Z,16.30
2018-10-03T21:41:16.747Z,16.40
2018-10-03T21:43:45.806Z,17.80
2018-10-03T21:46:14.802Z,16.77
2018-10-03T21:48:44.546Z,16.82
2018-10-03T21:51:13.624Z,16.70
2018-10-03T21:53:42.633Z,16.70
2018-10-03T21:56:11.559Z,17.23
2018-10-03T21:58:40.590Z,17.23
2018-10-03T22:01:09.583Z,17.05
2018-10-03T22:03:38.410Z,21.50
2018-10-03T22:06:07.450Z,18.55
2018-10-03T22:08:36.430Z,19.02
2018-10-03T22:11:05.456Z,18.75
2018-10-03T22:13:34.795Z,18.85
2018-10-03T22:16:03.828Z,19.32
2018-10-03T22:18:32.881Z,20.12
2018-10-03T22:21:01.854Z,19.00
2018-10-03T22:23:30.877Z,18.92
2018-10-03T22:26:00.134Z,18.85
2018-10-03T22:28:30.131Z,18.70
2018-10-03T22:30:59.180Z,19.90
2018-10-03T22:33:28.071Z,19.50
2018-10-03T22:35:57.038Z,19.65
2018-10-03T22:38:26.413Z,19.37
2018-10-03T22:40:55.329Z,19.92
2018-10-03T22:43:24.431Z,20.75
2018-10-03T22:45:53.443Z,21.15
2018-10-03T22:48:22.455Z,21.02
2018-10-03T22:50:53.077Z,21.55
2018-10-03T22:53:22.030Z,23.75
2018-10-03T22:55:51.118Z,25.85
2018-10-03T22:58:20.131Z,22.10
2018-10-03T23:00:49.126Z,23.38
2018-10-03T23:03:19.788Z,24.65
2018-10-03T23:05:48.699Z,24.63
2018-10-03T23:08:17.659Z,26.07
2018-10-03T23:10:46.714Z,26.27
2018-10-03T23:13:15.638Z,23.77
2018-10-03T23:15:45.395Z,24.90
2018-10-03T23:18:14.739Z,24.10
2018-10-03T23:20:43.818Z,24.12
2018-10-03T23:23:12.890Z,24.82
2018-10-03T23:25:41.764Z,24.20
2018-10-03T23:28:11.333Z,25.23
2018-10-03T23:30:40.335Z,25.57
2018-10-03T23:33:09.455Z,26.85
2018-10-03T23:35:38.446Z,26.73
2018-10-03T23:38:07.371Z,27.98
2018-10-03T23:40:36.493Z,28.23
2018-10-03T23:43:05.520Z,30.32
2018-10-03T23:45:34.548Z,32.93
2018-10-03T23:48:03.586Z,32.98
2018-10-03T23:50:32.458Z,34.67
2018-10-03T23:53:01.796Z,34.33
2018-10-03T23:55:30.958Z,37.15
2018-10-03T23:57:59.906Z,37.83
